Time;durP1;ratioP1;P1;durP2;ratioP2;P2;SDS_P1;SDS_P2;PMS_P1;PMS_P2;Temp;Humidity;BMP_temperature;BMP_pressure;BME280_temperature;BME280_humidity;BME280_pressure;Samples;Min_cycle;Max_cycle;Signal;HPM_P1;HPM_P2
2021/08/01 00:02:35;;;;;;;;;;;26.80;98.10;;;;;;1808352;78;20244;-89
2021/08/01 00:05:02;;;;;;;;;;;26.90;98.20;;;;;;1809350;78;20182;-90
2021/08/01 00:08:00;;;;;;;;;;;26.90;98.10;;;;;;1803253;78;20250;-90
2021/08/01 00:20:34;;;;;;;;;;;27.00;97.90;;;;;;1821167;76;20283;-90
2021/08/01 00:22:44;;;;;;;;;;;27.00;97.90;;;;;;1833338;76;20283;-89
2021/08/01 00:25:17;;;;;;;;;;;27.10;97.80;;;;;;1877346;73;20224;-89
2021/08/01 00:27:53;;;;;;;;;;;27.10;97.90;;;;;;1915107;73;20259;-89
2021/08/01 00:30:24;;;;;;;;;;;27.20;98.10;;;;;;1866149;73;20191;-90
2021/08/01 00:33:14;;;;;;;;;;;27.20;97.70;;;;;;1897902;73;20259;-90
2021/08/01 00:35:42;;;;;;;;;;;27.30;97.60;;;;;;1924828;73;20531;-89
2021/08/01 00:38:12;;;;;;;;;;;27.40;97.50;;;;;;1917507;73;20190;-90
2021/08/01 00:40:41;;;;;;;;;;;27.40;97.30;;;;;;1892363;73;20232;-90
2021/08/01 00:43:12;;;;;;;;;;;27.40;97.30;;;;;;1919907;73;20188;-90
2021/08/01 00:45:44;;;;;;;;;;;27.50;97.30;;;;;;1927090;73;20166;-88
2021/08/01 00:48:17;;;;;;;;;;;27.50;97.20;;;;;;1920666;73;20274;-91
2021/08/01 00:50:46;;;;;;;;;;;27.50;97.10;;;;;;1919210;73;20184;-91
2021/08/01 00:53:22;;;;;;;;;;;27.50;97.10;;;;;;1918893;73;20204;-91
2021/08/01 00:55:52;;;;;;;;;;;27.50;97.10;;;;;;1917403;73;20557;-89
2021/08/01 00:58:22;;;;;;;;;;;27.50;97.10;;;;;;1912014;73;20273;-89
2021/08/01 01:01:18;;;;;;;;;;;;;;;;;;;;;
2021/08/01 01:03:49;;;;;;;;;;;27.60;97.20;;;;;;1920826;73;20320;-89
2021/08/01 01:06:21;;;;;;;;;;;27.60;97.10;;;;;;1911291;73;20196;-89
2021/08/01 01:08:52;;;;;;;;;;;27.60;96.90;;;;;;1912437;73;20241;-89
2021/08/01 01:11:30;;;;;;;;;;;27.70;96.90;;;;;;1905637;75;20259;-88
2021/08/01 01:14:19;;;;;;;;;;;27.70;96.80;;;;;;1792465;80;20188;-90
2021/08/01 01:17:03;;;;;;;;;;;27.80;96.80;;;;;;1789079;80;20201;-91
2021/08/01 01:19:33;;;;;;;;;;;27.80;96.50;;;;;;1762893;80;20128;-89
2021/08/01 01:35:36;;;;;;;;;;;28.00;96.20;;;;;;1929286;73;20238;-90
2021/08/01 01:38:15;;;;;;;;;;;28.40;95.10;;;;;;1902097;73;20262;-91
2021/08/01 01:41:08;;;;;;;;;;;28.50;94.70;;;;;;1898903;74;20225;-89
2021/08/01 01:43:36;;;;;;;;;;;28.50;94.50;;;;;;1906404;74;20213;-87
2021/08/01 01:46:08;;;;;;;;;;;28.70;94.40;;;;;;1908969;73;20208;-89
2021/08/01 01:48:38;;;;;;;;;;;28.70;94.10;;;;;;1907258;73;20217;-90
2021/08/01 01:51:08;;;;;;;;;;;28.80;93.90;;;;;;1908563;74;20236;-88
2021/08/01 01:53:37;;;;;;;;;;;28.90;93.90;;;;;;1916306;74;20269;-89
2021/08/01 01:56:20;;;;;;;;;;;29.00;93.60;;;;;;1920270;74;20180;-90
2021/08/01 01:58:53;;;;;;;;;;;29.10;93.30;;;;;;1923141;74;20199;-87
2021/08/01 02:01:23;;;;;;;;;;;29.20;93.00;;;;;;1910602;74;20528;-89
2021/08/01 02:03:52;;;;;;;;;;;29.20;93.20;;;;;;1904590;74;20166;-90
2021/08/01 02:06:23;;;;;;;;;;;29.40;93.00;;;;;;1908005;74;20207;-90
2021/08/01 02:08:54;;;;;;;;;;;29.40;92.60;;;;;;1902323;74;20179;-88
2021/08/01 02:11:26;;;;;;;;;;;29.50;92.20;;;;;;1915844;74;20184;-89
2021/08/01 02:14:03;;;;;;;;;;;29.50;92.40;;;;;;1905123;72;20184;-89
2021/08/01 02:16:39;;;;;;;;;;;29.60;92.00;;;;;;1839185;77;20142;-89
2021/08/01 02:19:09;;;;;;;;;;;29.70;91.80;;;;;;1829639;77;20612;-90
2021/08/01 02:21:42;;;;;;;;;;;29.70;91.50;;;;;;1866838;75;20132;-88
2021/08/01 02:24:12;;;;;;;;;;;29.80;91.70;;;;;;1874117;75;20197;-88
2021/08/01 02:26:42;;;;;;;;;;;29.90;91.50;;;;;;1885517;75;20121;-88
2021/08/01 02:29:13;;;;;;;;;;;30.10;91.30;;;;;;1903734;74;20154;-90
2021/08/01 02:31:43;;;;;;;;;;;30.20;90.60;;;;;;1912108;74;20257;-87
2021/08/01 02:34:16;;;;;;;;;;;30.20;90.20;;;;;;1905853;74;20174;-89
2021/08/01 02:36:46;;;;;;;;;;;30.30;89.70;;;;;;1905268;74;20278;-94
2021/08/01 02:39:18;;;;;;;;;;;30.40;89.40;;;;;;1905476;74;20187;-91
2021/08/01 02:41:48;;;;;;;;;;;30.50;89.10;;;;;;1910377;74;20223;-89
2021/08/01 02:44:24;;;;;;;;;;;30.40;88.30;;;;;;1908419;73;20178;-88
2021/08/01 02:46:54;;;;;;;;;;;30.50;88.10;;;;;;1908669;74;20166;-88
2021/08/01 02:49:25;;;;;;;;;;;30.50;87.70;;;;;;1912544;73;20213;-87
2021/08/01 02:52:05;;;;;;;;;;;30.50;88.30;;;;;;1901810;74;20205;-87
2021/08/01 02:54:37;;;;;;;;;;;30.60;86.80;;;;;;1912323;74;20181;-90
2021/08/01 02:57:07;;;;;;;;;;;30.70;86.70;;;;;;1853236;76;20176;-89
2021/08/01 03:05:44;;;;;;;;;;;30.90;86.20;;;;;;1710307;81;20182;-89
2021/08/01 03:09:50;;;;;;;;;;;30.90;85.50;;;;;;1738965;81;20313;-89
2021/08/01 03:11:06;;;;;;;;;;;31.00;86.20;;;;;;1679572;81;20268;-88
2021/08/01 03:13:35;;;;;;;;;;;31.00;86.00;;;;;;1749642;81;20207;-91
2021/08/01 03:19:58;;;;;;;;;;;31.10;85.60;;;;;;1563878;90;20258;-89
2021/08/01 03:21:54;;;;;;;;;;;31.10;84.80;;;;;;1634251;87;20248;-89
2021/08/01 03:24:25;;;;;;;;;;;31.20;84.80;;;;;;1638097;87;20263;-91
2021/08/01 03:26:55;;;;;;;;;;;31.20;85.50;;;;;;1642201;86;20549;-91
2021/08/01 03:29:35;;;;;;;;;;;31.30;85.80;;;;;;1936886;72;20233;-88
2021/08/01 03:32:11;;;;;;;;;;;31.50;85.20;;;;;;1900984;74;20201;-93
2021/08/01 03:34:45;;;;;;;;;;;31.50;84.00;;;;;;1903475;74;20162;-89
2021/08/01 03:37:54;;;;;;;;;;;31.50;83.50;;;;;;1880351;73;20164;-91
2021/08/01 03:40:16;;;;;;;;;;;31.50;83.50;;;;;;1813081;77;20493;-92
2021/08/01 03:42:49;;;;;;;;;;;31.30;84.10;;;;;;1809348;78;20266;-91
2021/08/01 03:45:18;;;;;;;;;;;31.30;83.80;;;;;;1810877;78;20254;-91
2021/08/01 03:47:50;;;;;;;;;;;31.30;83.70;;;;;;1812527;78;20159;-88
2021/08/01 03:52:57;;;;;;;;;;;31.40;82.90;;;;;;1810962;78;20383;-90
2021/08/01 03:53:20;;;;;;;;;;;31.50;81.00;;;;;;1716052;82;20225;-91
2021/08/01 03:55:50;;;;;;;;;;;31.60;80.80;;;;;;1707202;83;20264;-92
2021/08/01 03:58:25;;;;;;;;;;;31.70;80.20;;;;;;1697788;83;20268;-92
2021/08/01 04:01:03;;;;;;;;;;;31.70;80.30;;;;;;1704973;83;20310;-92
2021/08/01 04:03:34;;;;;;;;;;;31.80;80.10;;;;;;1698056;83;20546;-90
2021/08/01 04:06:12;;;;;;;;;;;31.80;80.40;;;;;;1689526;83;20223;-89
2021/08/01 04:09:06;;;;;;;;;;;;;;;;;;;;;
2021/08/01 04:12:01;;;;;;;;;;;32.00;79.80;;;;;;1680311;80;20165;-92
2021/08/01 04:14:34;;;;;;;;;;;32.10;79.00;;;;;;1689234;80;20184;-90
2021/08/01 04:17:08;;;;;;;;;;;32.20;78.90;;;;;;1712353;79;20192;-91
2021/08/01 04:19:38;;;;;;;;;;;32.30;78.60;;;;;;1741465;79;20508;-90
2021/08/01 04:22:10;;;;;;;;;;;32.30;78.60;;;;;;1746299;79;20222;-91
2021/08/01 04:24:43;;;;;;;;;;;32.30;78.00;;;;;;1742504;77;20286;-90
2021/08/01 04:27:20;;;;;;;;;;;32.30;78.60;;;;;;1738235;82;20172;-91
2021/08/01 04:29:58;;;;;;;;;;;32.40;79.20;;;;;;1792671;75;20233;-90
2021/08/01 04:32:32;;;;;;;;;;;32.50;78.20;;;;;;1905055;73;20567;-90
2021/08/01 04:35:20;;;;;;;;;;;32.50;77.50;;;;;;1878436;74;20172;-87
2021/08/01 04:38:01;;;;;;;;;;;32.60;77.60;;;;;;1901225;75;20209;-92
2021/08/01 04:40:21;;;;;;;;;;;32.60;77.80;;;;;;1901155;75;20210;-91
2021/08/01 04:42:58;;;;;;;;;;;32.60;77.40;;;;;;1899713;75;20207;-91
2021/08/01 04:45:55;;;;;;;;;;;32.60;77.80;;;;;;1884488;74;20152;-90
2021/08/01 04:48:37;;;;;;;;;;;32.60;77.10;;;;;;1899916;75;20148;-90
2021/08/01 04:51:07;;;;;;;;;;;32.60;76.40;;;;;;1882887;73;20311;-93
2021/08/01 04:54:00;;;;;;;;;;;32.70;76.70;;;;;;1909921;74;20206;-93
2021/08/01 04:56:48;;;;;;;;;;;32.90;76.00;;;;;;1908033;72;20165;-91
2021/08/01 04:59:27;;;;;;;;;;;32.90;75.50;;;;;;1916404;72;20170;-94
2021/08/01 05:02:03;;;;;;;;;;;33.00;75.40;;;;;;1912550;72;20346;-87
2021/08/01 05:04:46;;;;;;;;;;;;;;;;;;;;;
2021/08/01 05:07:13;;;;;;;;;;;33.10;74.60;;;;;;1799388;78;20227;-88
2021/08/01 05:09:43;;;;;;;;;;;33.00;75.30;;;;;;1799249;79;20188;-89
2021/08/01 05:12:17;;;;;;;;;;;33.00;75.20;;;;;;1795525;79;20284;-90
2021/08/01 05:14:45;;;;;;;;;;;33.10;75.50;;;;;;1790564;80;20224;-92
2021/08/01 05:17:15;;;;;;;;;;;33.20;74.60;;;;;;1791211;79;20491;-89
2021/08/01 05:19:44;;;;;;;;;;;33.10;75.00;;;;;;1788006;80;20168;-89
2021/08/01 05:22:14;;;;;;;;;;;33.10;75.50;;;;;;1787786;80;20247;-90
2021/08/01 05:24:45;;;;;;;;;;;33.00;75.80;;;;;;1792136;79;20157;-90
2021/08/01 05:27:16;;;;;;;;;;;33.00;75.10;;;;;;1780053;79;20220;-90
2021/08/01 05:29:45;;;;;;;;;;;33.10;74.70;;;;;;1797366;79;20513;-88
2021/08/01 05:32:17;;;;;;;;;;;33.00;75.40;;;;;;1867969;73;20182;-89
2021/08/01 05:34:46;;;;;;;;;;;33.00;75.10;;;;;;1923446;73;20129;-86
2021/08/01 05:37:16;;;;;;;;;;;33.10;75.30;;;;;;1912946;75;20162;-87
2021/08/01 05:39:54;;;;;;;;;;;33.20;74.60;;;;;;1917813;72;20247;-87
2021/08/01 05:42:33;;;;;;;;;;;33.20;74.90;;;;;;1891375;72;20182;-89
2021/08/01 05:45:05;;;;;;;;;;;33.30;74.50;;;;;;1918302;72;20191;-89
2021/08/01 05:47:36;;;;;;;;;;;33.30;73.90;;;;;;1913499;74;20180;-90
2021/08/01 05:50:09;;;;;;;;;;;33.40;73.30;;;;;;1904840;73;20436;-91
2021/08/01 05:52:48;;;;;;;;;;;33.40;73.20;;;;;;1913203;74;20281;-91
2021/08/01 05:55:20;;;;;;;;;;;33.40;73.50;;;;;;1912532;73;20195;-91
2021/08/01 05:57:51;;;;;;;;;;;33.40;72.50;;;;;;1916737;73;20425;-91
2021/08/01 06:00:22;;;;;;;;;;;33.40;72.40;;;;;;1924735;73;20158;-79
2021/08/01 06:02:52;;;;;;;;;;;33.30;73.10;;;;;;1920479;73;20481;-78
2021/08/01 06:05:22;;;;;;;;;;;33.30;72.80;;;;;;1915792;73;20630;-78
2021/08/01 06:07:51;;;;;;;;;;;33.20;72.80;;;;;;1912652;73;20201;-78
2021/08/01 06:10:21;;;;;;;;;;;33.10;74.00;;;;;;1917497;73;20186;-79
2021/08/01 06:12:51;;;;;;;;;;;33.10;72.70;;;;;;1921316;73;20245;-79
2021/08/01 06:15:20;;;;;;;;;;;33.20;72.60;;;;;;1915504;73;20245;-79
2021/08/01 06:17:50;;;;;;;;;;;33.30;72.10;;;;;;1912650;74;20486;-79
2021/08/01 06:20:19;;;;;;;;;;;33.30;73.10;;;;;;1915001;73;20607;-79
2021/08/01 06:22:49;;;;;;;;;;;33.30;72.60;;;;;;1911112;75;20657;-79
2021/08/01 06:25:19;;;;;;;;;;;33.30;72.20;;;;;;1916429;75;20222;-79
2021/08/01 06:27:48;;;;;;;;;;;33.30;72.00;;;;;;1915422;73;20215;-78
2021/08/01 06:30:18;;;;;;;;;;;33.20;72.50;;;;;;1917228;75;20211;-79
2021/08/01 06:32:48;;;;;;;;;;;33.30;73.20;;;;;;1914094;75;20520;-79
2021/08/01 06:35:17;;;;;;;;;;;33.20;72.70;;;;;;1917693;75;20210;-79
2021/08/01 06:37:47;;;;;;;;;;;33.30;73.60;;;;;;1906974;75;20258;-79
2021/08/01 06:40:17;;;;;;;;;;;33.30;72.30;;;;;;1889127;75;20433;-78
2021/08/01 06:42:47;;;;;;;;;;;33.30;72.60;;;;;;1898654;75;20608;-77
2021/08/01 06:45:20;;;;;;;;;;;33.30;71.80;;;;;;1908727;75;20195;-78
2021/08/01 06:47:52;;;;;;;;;;;33.20;73.00;;;;;;1901180;75;20251;-78
2021/08/01 06:50:49;;;;;;;;;;;33.10;73.00;;;;;;1894952;75;20297;-78
2021/08/01 06:53:19;;;;;;;;;;;33.00;73.20;;;;;;1913571;74;20162;-79
2021/08/01 06:55:48;;;;;;;;;;;33.00;73.90;;;;;;1920249;74;20167;-79
2021/08/01 06:58:19;;;;;;;;;;;32.90;73.60;;;;;;1928849;74;20163;-79
2021/08/01 07:00:49;;;;;;;;;;;32.90;74.10;;;;;;1910561;74;20192;-79
2021/08/01 07:03:19;;;;;;;;;;;32.80;74.10;;;;;;1916337;73;20209;-79
2021/08/01 07:05:49;;;;;;;;;;;32.80;74.00;;;;;;1921499;73;20465;-79
2021/08/01 07:08:19;;;;;;;;;;;32.80;74.40;;;;;;1908764;73;20157;-79
2021/08/01 07:10:48;;;;;;;;;;;32.70;74.80;;;;;;1917614;73;20252;-79
2021/08/01 07:13:18;;;;;;;;;;;32.70;75.30;;;;;;1911247;74;20432;-78
2021/08/01 07:15:49;;;;;;;;;;;32.70;74.40;;;;;;1917032;73;20191;-78
2021/08/01 07:18:18;;;;;;;;;;;32.70;74.70;;;;;;1926519;73;20226;-79
2021/08/01 07:20:49;;;;;;;;;;;32.60;75.10;;;;;;1920961;73;20206;-78
2021/08/01 07:23:19;;;;;;;;;;;32.60;75.30;;;;;;1875577;75;20248;-77
2021/08/01 07:25:48;;;;;;;;;;;32.60;74.80;;;;;;1877217;75;20214;-78
2021/08/01 07:28:18;;;;;;;;;;;32.60;75.20;;;;;;1872621;76;20476;-79
2021/08/01 07:30:48;;;;;;;;;;;32.60;74.70;;;;;;1879018;76;20478;-79
2021/08/01 07:33:19;;;;;;;;;;;32.50;74.80;;;;;;1880297;75;20177;-78
2021/08/01 07:35:50;;;;;;;;;;;32.40;75.30;;;;;;1872329;76;20213;-78
2021/08/01 07:38:19;;;;;;;;;;;32.40;76.10;;;;;;1873241;76;20230;-78
2021/08/01 07:40:49;;;;;;;;;;;32.40;75.60;;;;;;1869857;76;20241;-78
2021/08/01 07:43:19;;;;;;;;;;;32.40;75.20;;;;;;1872962;75;20219;-78
2021/08/01 07:45:48;;;;;;;;;;;32.40;76.10;;;;;;1869647;75;20245;-78
2021/08/01 07:48:18;;;;;;;;;;;32.40;75.90;;;;;;1869227;75;20132;-79
2021/08/01 07:50:47;;;;;;;;;;;32.40;75.00;;;;;;1883779;75;20220;-80
2021/08/01 07:53:17;;;;;;;;;;;32.50;74.80;;;;;;1869523;76;20239;-79
2021/08/01 07:55:48;;;;;;;;;;;32.50;75.30;;;;;;1865447;76;20184;-77
2021/08/01 07:58:18;;;;;;;;;;;32.60;74.70;;;;;;1868094;76;20162;-77
2021/08/01 08:00:48;;;;;;;;;;;32.60;74.90;;;;;;1866245;76;20302;-77
2021/08/01 08:03:18;;;;;;;;;;;32.60;74.10;;;;;;1870204;76;20160;-78
2021/08/01 08:05:48;;;;;;;;;;;32.60;74.40;;;;;;1871076;76;20537;-77
2021/08/01 08:08:17;;;;;;;;;;;32.60;74.40;;;;;;1866668;76;20265;-78
2021/08/01 08:10:48;;;;;;;;;;;32.50;75.10;;;;;;1873440;75;20185;-78
2021/08/01 08:13:18;;;;;;;;;;;32.40;75.10;;;;;;1870835;76;20263;-78
2021/08/01 08:15:48;;;;;;;;;;;32.40;75.40;;;;;;1869099;75;20203;-78
2021/08/01 08:18:18;;;;;;;;;;;32.30;75.80;;;;;;1875900;75;20194;-78
2021/08/01 08:20:48;;;;;;;;;;;32.20;76.30;;;;;;1873701;75;20168;-77
2021/08/01 08:23:19;;;;;;;;;;;32.10;76.80;;;;;;1871539;75;20162;-77
2021/08/01 08:25:50;;;;;;;;;;;32.00;76.70;;;;;;1876488;75;20235;-77
2021/08/01 08:28:20;;;;;;;;;;;31.90;76.70;;;;;;1873001;75;20163;-78
2021/08/01 08:30:49;;;;;;;;;;;31.80;77.40;;;;;;1873722;75;20196;-77
2021/08/01 08:33:19;;;;;;;;;;;31.80;77.10;;;;;;1872090;75;20457;-78
2021/08/01 08:35:49;;;;;;;;;;;31.80;77.20;;;;;;1884254;75;20126;-77
2021/08/01 08:38:19;;;;;;;;;;;31.70;78.40;;;;;;1872251;75;20172;-78
2021/08/01 08:40:49;;;;;;;;;;;31.70;78.60;;;;;;1876166;75;20237;-77
2021/08/01 08:43:20;;;;;;;;;;;31.70;78.50;;;;;;1877194;75;20187;-78
2021/08/01 08:45:50;;;;;;;;;;;31.80;78.10;;;;;;1871562;75;20476;-78
2021/08/01 08:48:21;;;;;;;;;;;31.80;78.00;;;;;;1880009;75;20216;-77
2021/08/01 08:50:51;;;;;;;;;;;31.80;79.30;;;;;;1880282;75;20467;-76
2021/08/01 08:53:22;;;;;;;;;;;31.80;78.40;;;;;;1864856;75;20239;-77
2021/08/01 08:55:53;;;;;;;;;;;31.80;78.80;;;;;;1873136;75;20254;-77
2021/08/01 08:58:28;;;;;;;;;;;31.80;77.80;;;;;;1874372;75;20133;-77
2021/08/01 09:00:58;;;;;;;;;;;31.70;78.20;;;;;;1871049;75;20243;-77
2021/08/01 09:03:29;;;;;;;;;;;31.70;78.30;;;;;;1865463;75;20204;-77
2021/08/01 09:05:59;;;;;;;;;;;31.60;78.20;;;;;;1865270;75;20215;-77
2021/08/01 09:08:29;;;;;;;;;;;31.60;78.10;;;;;;1872567;75;20911;-77
2021/08/01 09:11:00;;;;;;;;;;;31.60;78.40;;;;;;1856534;75;20186;-77
2021/08/01 09:13:30;;;;;;;;;;;31.60;79.00;;;;;;1866104;75;20166;-77
2021/08/01 09:16:00;;;;;;;;;;;31.60;79.40;;;;;;1883159;75;20235;-78
2021/08/01 09:18:31;;;;;;;;;;;31.60;78.60;;;;;;1859828;75;20407;-78
2021/08/01 09:21:01;;;;;;;;;;;31.60;78.50;;;;;;1857461;75;20158;-78
2021/08/01 09:23:31;;;;;;;;;;;31.50;78.60;;;;;;1871726;75;20198;-77
2021/08/01 09:26:02;;;;;;;;;;;31.50;79.20;;;;;;1874561;75;20121;-78
2021/08/01 09:28:32;;;;;;;;;;;31.40;79.20;;;;;;1876208;75;20926;-78
2021/08/01 09:31:03;;;;;;;;;;;31.40;79.40;;;;;;1871733;75;20231;-77
2021/08/01 09:33:33;;;;;;;;;;;31.40;79.30;;;;;;1876639;75;20231;-78
2021/08/01 09:36:04;;;;;;;;;;;31.40;79.40;;;;;;1875204;75;20222;-78
2021/08/01 09:38:36;;;;;;;;;;;31.40;79.40;;;;;;1875592;75;20183;-78
2021/08/01 09:41:06;;;;;;;;;;;31.40;79.60;;;;;;1869933;75;20223;-78
2021/08/01 09:43:38;;;;;;;;;;;31.40;79.30;;;;;;1922532;74;20168;-80
2021/08/01 09:46:08;;;;;;;;;;;31.40;79.80;;;;;;1922509;74;20230;-77
2021/08/01 09:48:37;;;;;;;;;;;31.40;80.10;;;;;;1908197;74;20188;-77
2021/08/01 09:51:08;;;;;;;;;;;31.40;80.20;;;;;;1863406;76;20216;-77
2021/08/01 09:53:41;;;;;;;;;;;31.40;80.00;;;;;;1881964;75;20218;-79
2021/08/01 09:56:11;;;;;;;;;;;31.30;80.00;;;;;;1894322;74;20163;-77
2021/08/01 09:58:47;;;;;;;;;;;31.30;80.40;;;;;;1895597;75;20191;-78
2021/08/01 10:01:17;;;;;;;;;;;31.20;80.60;;;;;;1905059;74;20150;-77
2021/08/01 10:03:49;;;;;;;;;;;31.10;80.90;;;;;;1875909;75;20174;-78
2021/08/01 10:06:20;;;;;;;;;;;31.10;81.30;;;;;;1878780;76;20233;-78
2021/08/01 10:08:50;;;;;;;;;;;31.10;81.40;;;;;;1875610;74;20155;-78
2021/08/01 10:11:21;;;;;;;;;;;31.00;81.60;;;;;;1835809;76;20171;-78
2021/08/01 10:13:52;;;;;;;;;;;31.10;82.10;;;;;;1858517;75;20197;-78
2021/08/01 10:16:23;;;;;;;;;;;31.00;82.40;;;;;;1859600;75;20180;-77
2021/08/01 10:18:53;;;;;;;;;;;31.00;82.30;;;;;;1859943;77;20171;-77
2021/08/01 10:21:24;;;;;;;;;;;31.00;82.50;;;;;;1859217;75;20154;-78
2021/08/01 10:23:55;;;;;;;;;;;31.00;82.60;;;;;;1860745;77;20437;-77
2021/08/01 10:26:26;;;;;;;;;;;31.00;83.10;;;;;;1860071;75;20254;-76
2021/08/01 10:28:58;;;;;;;;;;;31.00;82.90;;;;;;1860597;75;20213;-77
2021/08/01 10:31:29;;;;;;;;;;;31.00;82.80;;;;;;1860510;75;20329;-78
2021/08/01 10:34:00;;;;;;;;;;;31.00;83.10;;;;;;1859969;77;20241;-78
2021/08/01 10:36:30;;;;;;;;;;;30.90;82.90;;;;;;1858929;75;20208;-78
2021/08/01 10:39:01;;;;;;;;;;;30.90;83.30;;;;;;1860500;77;20276;-79
2021/08/01 10:41:32;;;;;;;;;;;30.90;83.70;;;;;;1860483;75;20208;-76
2021/08/01 10:44:03;;;;;;;;;;;30.90;84.40;;;;;;1859285;75;20120;-76
2021/08/01 10:46:34;;;;;;;;;;;30.90;84.70;;;;;;1860451;76;20497;-77
2021/08/01 10:49:05;;;;;;;;;;;30.90;84.80;;;;;;1859843;77;20172;-78
2021/08/01 10:51:35;;;;;;;;;;;30.80;85.10;;;;;;1863523;75;20195;-76
2021/08/01 10:54:07;;;;;;;;;;;30.80;85.70;;;;;;1857952;75;20541;-77
2021/08/01 10:56:36;;;;;;;;;;;30.80;85.90;;;;;;1855072;75;20602;-75
2021/08/01 10:59:06;;;;;;;;;;;30.80;86.10;;;;;;1858743;75;20551;-76
2021/08/01 11:01:37;;;;;;;;;;;30.80;86.20;;;;;;1857313;75;20252;-78
2021/08/01 11:04:09;;;;;;;;;;;30.60;86.50;;;;;;1863979;75;20179;-78
2021/08/01 11:06:41;;;;;;;;;;;30.70;86.70;;;;;;1861667;75;20171;-77
2021/08/01 11:09:12;;;;;;;;;;;30.60;88.00;;;;;;1862141;75;20170;-77
2021/08/01 11:11:45;;;;;;;;;;;30.60;86.70;;;;;;1864282;76;20224;-78
2021/08/01 11:14:15;;;;;;;;;;;30.60;87.30;;;;;;1873489;75;20147;-77
2021/08/01 11:16:46;;;;;;;;;;;30.60;87.40;;;;;;1849934;76;20216;-77
2021/08/01 11:19:17;;;;;;;;;;;30.60;87.70;;;;;;1870154;75;20199;-80
2021/08/01 11:21:47;;;;;;;;;;;30.60;87.90;;;;;;1857010;75;20131;-76
2021/08/01 11:24:17;;;;;;;;;;;30.60;87.90;;;;;;1885495;75;20229;-76
2021/08/01 11:26:50;;;;;;;;;;;30.50;87.90;;;;;;1896580;75;20273;-78
2021/08/01 11:29:21;;;;;;;;;;;30.50;88.10;;;;;;1872311;75;20446;-79
2021/08/01 11:31:55;;;;;;;;;;;30.50;88.20;;;;;;1867681;75;20227;-78
2021/08/01 11:34:25;;;;;;;;;;;30.50;88.70;;;;;;1865939;76;20117;-77
2021/08/01 11:36:56;;;;;;;;;;;30.50;88.70;;;;;;1862075;76;20483;-75
2021/08/01 11:39:30;;;;;;;;;;;30.50;88.90;;;;;;1840838;76;20182;-79
2021/08/01 11:42:04;;;;;;;;;;;30.50;89.20;;;;;;1832232;77;20186;-78
2021/08/01 11:44:37;;;;;;;;;;;30.50;89.50;;;;;;1822896;78;20503;-78
2021/08/01 11:47:08;;;;;;;;;;;30.40;89.30;;;;;;1837285;78;20186;-76
2021/08/01 11:49:40;;;;;;;;;;;30.40;89.80;;;;;;1842834;78;20599;-80
2021/08/01 11:52:11;;;;;;;;;;;30.40;90.00;;;;;;1841966;78;20217;-78
2021/08/01 11:54:44;;;;;;;;;;;30.30;90.10;;;;;;1829078;77;20434;-79
2021/08/01 11:57:14;;;;;;;;;;;30.30;90.10;;;;;;1870964;76;20497;-80
2021/08/01 11:59:44;;;;;;;;;;;30.30;90.20;;;;;;1863502;76;20122;-79
2021/08/01 12:02:16;;;;;;;;;;;30.30;90.20;;;;;;1870972;76;20275;-76
2021/08/01 12:04:48;;;;;;;;;;;30.30;90.20;;;;;;1864015;76;20154;-78
2021/08/01 12:07:18;;;;;;;;;;;30.30;90.40;;;;;;1851676;76;20201;-78
2021/08/01 12:09:48;;;;;;;;;;;30.30;90.50;;;;;;1843908;77;20130;-80
2021/08/01 12:12:19;;;;;;;;;;;30.30;90.50;;;;;;1841913;76;20160;-79
2021/08/01 12:14:50;;;;;;;;;;;30.30;90.50;;;;;;1855415;75;20235;-79
2021/08/01 12:17:19;;;;;;;;;;;30.30;90.60;;;;;;1858358;75;20204;-78
2021/08/01 12:19:51;;;;;;;;;;;30.30;90.50;;;;;;1858990;75;20213;-79
2021/08/01 12:22:25;;;;;;;;;;;30.30;90.70;;;;;;1864342;75;20291;-79
2021/08/01 12:24:57;;;;;;;;;;;30.20;90.40;;;;;;1860081;76;20185;-81
2021/08/01 12:27:27;;;;;;;;;;;30.10;90.40;;;;;;1864124;75;20341;-80
2021/08/01 12:30:02;;;;;;;;;;;30.20;90.60;;;;;;1849579;76;20228;-82
2021/08/01 12:32:31;;;;;;;;;;;30.10;90.60;;;;;;1868123;76;20193;-78
2021/08/01 12:35:02;;;;;;;;;;;30.10;90.60;;;;;;1856971;76;20283;-77
2021/08/01 12:37:33;;;;;;;;;;;30.10;90.60;;;;;;1860614;76;20222;-80
2021/08/01 12:40:03;;;;;;;;;;;30.10;90.70;;;;;;1860559;76;20181;-78
2021/08/01 12:42:32;;;;;;;;;;;30.10;90.80;;;;;;1858160;77;20221;-79
2021/08/01 12:45:04;;;;;;;;;;;30.10;90.80;;;;;;1862593;76;20181;-78
2021/08/01 12:47:34;;;;;;;;;;;30.00;90.70;;;;;;1856758;76;20138;-78
2021/08/01 12:50:05;;;;;;;;;;;30.00;90.80;;;;;;1856135;76;20165;-76
2021/08/01 12:52:34;;;;;;;;;;;30.00;90.80;;;;;;1879825;76;20136;-78
2021/08/01 12:55:08;;;;;;;;;;;30.00;90.80;;;;;;1852469;76;20180;-76
2021/08/01 12:57:38;;;;;;;;;;;30.00;90.80;;;;;;1849170;77;20210;-76
2021/08/01 13:00:09;;;;;;;;;;;30.00;90.80;;;;;;1859605;75;20457;-78
2021/08/01 13:02:40;;;;;;;;;;;30.00;90.80;;;;;;1858981;76;20271;-79
2021/08/01 13:05:12;;;;;;;;;;;29.90;90.90;;;;;;1856140;75;20234;-78
2021/08/01 13:07:43;;;;;;;;;;;29.90;90.80;;;;;;1857894;77;20220;-79
2021/08/01 13:10:14;;;;;;;;;;;29.90;91.00;;;;;;1859446;76;20183;-79
2021/08/01 13:12:45;;;;;;;;;;;29.90;90.90;;;;;;1852291;76;20217;-76
2021/08/01 13:15:16;;;;;;;;;;;29.90;91.00;;;;;;1851762;76;20134;-77
2021/08/01 13:17:45;;;;;;;;;;;29.90;90.80;;;;;;1844854;76;20243;-78
2021/08/01 13:20:16;;;;;;;;;;;29.90;91.00;;;;;;1862416;76;20209;-78
2021/08/01 13:22:46;;;;;;;;;;;29.90;91.00;;;;;;1853163;76;20225;-78
2021/08/01 13:25:16;;;;;;;;;;;29.90;91.10;;;;;;1848148;76;20172;-78
2021/08/01 13:27:46;;;;;;;;;;;29.90;91.10;;;;;;1853399;76;20599;-77
2021/08/01 13:30:21;;;;;;;;;;;29.90;91.10;;;;;;1848719;76;20191;-77
2021/08/01 13:32:48;;;;;;;;;;;29.80;91.10;;;;;;1845467;76;20184;-77
2021/08/01 13:35:19;;;;;;;;;;;29.80;91.10;;;;;;1844959;76;20149;-78
2021/08/01 13:37:50;;;;;;;;;;;29.80;91.20;;;;;;1829447;77;20267;-80
2021/08/01 13:40:20;;;;;;;;;;;29.80;91.20;;;;;;1843165;77;20250;-78
2021/08/01 13:42:50;;;;;;;;;;;29.80;91.20;;;;;;1842939;77;20469;-77
2021/08/01 13:45:21;;;;;;;;;;;29.80;91.20;;;;;;1836279;77;20551;-78
2021/08/01 13:47:52;;;;;;;;;;;29.80;91.30;;;;;;1841641;76;20225;-78
2021/08/01 13:50:23;;;;;;;;;;;29.80;91.40;;;;;;1836475;77;20223;-78
2021/08/01 13:52:53;;;;;;;;;;;29.80;91.40;;;;;;1838692;77;20596;-78
2021/08/01 13:55:23;;;;;;;;;;;29.80;91.40;;;;;;1842888;77;20189;-89
2021/08/01 13:57:54;;;;;;;;;;;29.80;91.50;;;;;;1841616;76;20210;-88
2021/08/01 14:00:27;;;;;;;;;;;29.80;91.50;;;;;;1830572;76;20562;-89
2021/08/01 14:03:34;;;;;;;;;;;29.70;91.60;;;;;;1833190;76;20137;-89
2021/08/01 14:06:04;;;;;;;;;;;29.80;91.60;;;;;;1822851;76;20225;-89
2021/08/01 14:08:35;;;;;;;;;;;29.70;91.60;;;;;;1837939;76;20174;-87
2021/08/01 14:10:59;;;;;;;;;;;29.70;91.70;;;;;;1842132;77;20249;-89
2021/08/01 14:13:28;;;;;;;;;;;29.70;91.70;;;;;;1843001;76;20293;-87
2021/08/01 14:15:58;;;;;;;;;;;29.70;91.80;;;;;;1840331;76;20517;-89
2021/08/01 14:18:28;;;;;;;;;;;29.70;91.80;;;;;;1842379;76;20233;-88
2021/08/01 14:20:58;;;;;;;;;;;29.70;91.90;;;;;;1838302;76;20214;-89
2021/08/01 14:23:28;;;;;;;;;;;29.70;92.00;;;;;;1843756;76;20300;-88
2021/08/01 14:25:59;;;;;;;;;;;29.60;92.00;;;;;;1839539;76;20214;-88
2021/08/01 14:28:29;;;;;;;;;;;29.70;92.00;;;;;;1840077;76;20210;-88
2021/08/01 14:31:00;;;;;;;;;;;29.60;92.00;;;;;;1836928;77;20148;-89
2021/08/01 14:33:29;;;;;;;;;;;29.60;92.10;;;;;;1854756;77;20206;-88
2021/08/01 14:35:59;;;;;;;;;;;29.60;92.10;;;;;;1839227;76;20167;-88
2021/08/01 14:38:33;;;;;;;;;;;29.60;92.00;;;;;;1848041;76;20186;-88
2021/08/01 14:41:07;;;;;;;;;;;29.60;92.10;;;;;;1840883;76;20212;-88
2021/08/01 14:43:39;;;;;;;;;;;29.60;92.10;;;;;;1845365;76;20167;-86
2021/08/01 14:46:10;;;;;;;;;;;29.60;92.00;;;;;;1847403;76;20208;-88
2021/08/01 14:48:42;;;;;;;;;;;29.50;92.00;;;;;;1843133;76;20253;-88
2021/08/01 14:53:44;;;;;;;;;;;29.50;91.90;;;;;;1832201;76;20206;-87
2021/08/01 14:56:15;;;;;;;;;;;29.50;91.80;;;;;;1839162;76;20606;-89
2021/08/01 14:58:46;;;;;;;;;;;29.50;91.90;;;;;;1853099;76;20170;-88
2021/08/01 15:01:21;;;;;;;;;;;29.50;92.10;;;;;;1864176;75;20161;-89
2021/08/01 15:03:56;;;;;;;;;;;29.50;92.00;;;;;;1821722;76;20212;-89
2021/08/01 15:06:24;;;;;;;;;;;29.50;92.10;;;;;;1840479;76;20238;-88
2021/08/01 15:08:56;;;;;;;;;;;29.50;92.10;;;;;;1838729;76;20230;-88
2021/08/01 15:11:25;;;;;;;;;;;29.50;92.10;;;;;;1841245;76;20247;-87
2021/08/01 15:14:24;;;;;;;;;;;29.50;92.10;;;;;;1822587;76;20263;-87
2021/08/01 15:17:23;;;;;;;;;;;;;;;;;;;;;
2021/08/01 15:20:05;;;;;;;;;;;29.50;92.10;;;;;;1727992;81;20505;-88
2021/08/01 15:23:02;;;;;;;;;;;29.50;92.10;;;;;;1737845;80;20277;-90
2021/08/01 15:25:34;;;;;;;;;;;29.50;92.10;;;;;;1780341;79;20292;-88
2021/08/01 15:28:07;;;;;;;;;;;29.50;92.10;;;;;;1797509;78;20469;-88